Valgardena — ICKG — position and weather

sailwx.info

Track history (hours):
 
Tides and Currents Weather Stations Pressure Air Temp Water Temp Dewpoint Dewpoint Depression Visibility Wind Speed Wind Dir Waves Ship Positions

Valgardena

Last reported at 2017-Nov-18 21:56 UTC. Time now 2017-Nov-18 22:02 UTC.
Position N 38°13' E 015°17'.

Length 184 m; draft 7.5 m.

Type: Ship. MMSI: 247243800.

Date/timePositionNaut miles runAvg speedWind from/ knotsBaromVisibWave heightAir tempDewpointWater temp
2017-Nov-18 21:56N 38°13' E 015°17'0 0.1
2017-Nov-18 21:26N 38°13' E 015°17'0 0.0
2017-Nov-18 20:56N 38°13' E 015°17'0 0.1
2017-Nov-18 20:26N 38°13' E 015°17'0 0.1
2017-Nov-18 19:56N 38°13' E 015°17'0 0.1
2017-Nov-18 19:26N 38°13' E 015°17'0 0.1
2017-Nov-18 18:56N 38°13' E 015°17'0 0.1
2017-Nov-18 18:26N 38°13' E 015°17'1 2.2
2017-Nov-18 18:00N 38°14' E 015°17'3 5.8
2017-Nov-18 17:30N 38°17' E 015°16'5 9.9
2017-Nov-18 17:00N 38°18' E 015°10'713.5
2017-Nov-18 16:30N 38°18' E 015°01'713.4
2017-Nov-18 16:00N 38°18' E 014°53'713.3
2017-Nov-18 15:30N 38°18' E 014°44'713.4
2017-Nov-18 15:00N 38°18' E 014°36'713.2
2017-Nov-18 14:30N 38°18' E 014°27'713.2
2017-Nov-18 13:59N 38°18' E 014°18'1413.4
2017-Nov-18 12:56N 38°18' E 014°00'613.6
2017-Nov-18 12:29N 38°18' E 013°53'713.7
2017-Nov-18 12:00N 38°18' E 013°44'713.5
2017-Nov-18 11:30N 38°18' E 013°36'713.6
2017-Nov-18 11:00N 38°18' E 013°27'713.5
2017-Nov-18 10:30N 38°18' E 013°19'713.4
2017-Nov-18 10:00N 38°18' E 013°10'713.3
2017-Nov-18 09:30N 38°19' E 013°02'713.3
2017-Nov-18 09:00N 38°19' E 012°53'713.4
2017-Nov-18 08:30N 38°19' E 012°45'713.4
2017-Nov-18 07:59N 38°18' E 012°36'  
2017-Nov-15 15:47N 35°59' W 005°13'311.5
2017-Nov-15 15:30N 35°59' W 005°17'713.5
2017-Nov-15 15:00N 35°58' W 005°25'8 0.8
2017-Nov-15 04:59N 35°57' W 005°35'3 0.1
2017-Nov-14 00:00N 35°57' W 005°31'5 9.8
2017-Nov-13 23:30N 35°60' W 005°27'510.6
2017-Nov-13 23:00N 36°04' W 005°24'4 8.4
2017-Nov-13 22:30N 36°08' W 005°25'0 0.0
2017-Nov-12 21:54N 36°08' W 005°26'1 0.2
2017-Nov-12 16:48N 36°10' W 005°25'0 0.1
2017-Nov-12 16:30N 36°10' W 005°25'0 0.0
2017-Nov-12 15:39N 36°10' W 005°25'0 0.1
2017-Nov-12 15:24N 36°10' W 005°25'0 0.0
2017-Nov-12 14:51N 36°10' W 005°25'0 0.1
2017-Nov-12 14:30N 36°10' W 005°25'0 0.0
2017-Nov-12 12:51N 36°09' W 005°25'0 0.2
2017-Nov-12 12:06N 36°10' W 005°26'0 0.3
2017-Nov-12 12:00N 36°10' W 005°26'0 0.0
2017-Nov-11 20:15N 36°10' W 005°26'0 0.1
2017-Nov-11 19:57N 36°10' W 005°26'0 0.0
2017-Nov-11 18:18N 36°10' W 005°26'0 0.1
2017-Nov-11 17:54N 36°10' W 005°26'0 0.2
2017-Nov-11 17:30N 36°10' W 005°25'0 0.0
2017-Nov-11 17:00N 36°10' W 005°25'0 0.0
2017-Nov-11 14:11N 36°10' W 005°25'0 0.0
2017-Nov-11 13:56N 36°10' W 005°25'0 0.0
2017-Nov-11 07:20N 36°10' W 005°25'0 0.0
2017-Nov-11 06:59N 36°10' W 005°25'0 0.0
2017-Nov-11 06:29N 36°10' W 005°25'0 0.0
2017-Nov-11 04:59N 36°10' W 005°25'0 0.0
2017-Nov-11 04:23N 36°10' W 005°25'3 0.9
2017-Nov-11 00:30N 36°06' W 005°24'4 8.6
2017-Nov-11 00:00N 36°04' W 005°19'3 6.6
2017-Nov-10 23:29N 36°05' W 005°15'0 0.3
2017-Nov-10 23:00N 36°05' W 005°15'1 1.7
2017-Nov-10 22:30N 36°04' W 005°16'1 2.5
2017-Nov-10 22:00N 36°04' W 005°18'1 1.6
2017-Nov-10 21:30N 36°04' W 005°19'2 4.4
2017-Nov-10 21:00N 36°04' W 005°21'2 4.2
2017-Nov-10 20:30N 36°05' W 005°23'3 5.6
2017-Nov-10 20:00N 36°08' W 005°23'4 0.1
2017-Nov-09 18:29N 36°05' W 005°20'4 5.4
2017-Nov-09 17:50N 36°07' W 005°16'  
Track history (hours):
 
Tides and Currents Weather Stations Pressure Air Temp Water Temp Dewpoint Dewpoint Depression Visibility Wind Speed Wind Dir Waves Ship Positions

Valgardena

Last reported at 2017-Nov-18 21:56 UTC. Time now 2017-Nov-18 22:02 UTC.
Position N 38°13' E 015°17'.

Length 184 m; draft 7.5 m.

Type: Ship. MMSI: 247243800.

Date/timePositionNaut miles runAvg speedWind from/ knotsBaromVisibWave heightAir tempDewpointWater temp
2017-Nov-18 21:56N 38°13' E 015°17'0 0.1
2017-Nov-18 21:26N 38°13' E 015°17'0 0.0
2017-Nov-18 20:56N 38°13' E 015°17'0 0.1
2017-Nov-18 20:26N 38°13' E 015°17'0 0.1
2017-Nov-18 19:56N 38°13' E 015°17'0 0.1
2017-Nov-18 19:26N 38°13' E 015°17'0 0.1
2017-Nov-18 18:56N 38°13' E 015°17'0 0.1
2017-Nov-18 18:26N 38°13' E 015°17'1 2.2
2017-Nov-18 18:00N 38°14' E 015°17'3 5.8
2017-Nov-18 17:30N 38°17' E 015°16'5 9.9
2017-Nov-18 17:00N 38°18' E 015°10'713.5
2017-Nov-18 16:30N 38°18' E 015°01'713.4
2017-Nov-18 16:00N 38°18' E 014°53'713.3
2017-Nov-18 15:30N 38°18' E 014°44'713.4
2017-Nov-18 15:00N 38°18' E 014°36'713.2
2017-Nov-18 14:30N 38°18' E 014°27'713.2
2017-Nov-18 13:59N 38°18' E 014°18'1413.4
2017-Nov-18 12:56N 38°18' E 014°00'613.6
2017-Nov-18 12:29N 38°18' E 013°53'713.7
2017-Nov-18 12:00N 38°18' E 013°44'713.5
2017-Nov-18 11:30N 38°18' E 013°36'713.6
2017-Nov-18 11:00N 38°18' E 013°27'713.5
2017-Nov-18 10:30N 38°18' E 013°19'713.4
2017-Nov-18 10:00N 38°18' E 013°10'713.3
2017-Nov-18 09:30N 38°19' E 013°02'713.3
2017-Nov-18 09:00N 38°19' E 012°53'713.4
2017-Nov-18 08:30N 38°19' E 012°45'713.4
2017-Nov-18 07:59N 38°18' E 012°36'  
2017-Nov-15 15:47N 35°59' W 005°13'311.5
2017-Nov-15 15:30N 35°59' W 005°17'713.5
2017-Nov-15 15:00N 35°58' W 005°25'8 0.8
2017-Nov-15 04:59N 35°57' W 005°35'3 0.1
2017-Nov-14 00:00N 35°57' W 005°31'5 9.8
2017-Nov-13 23:30N 35°60' W 005°27'510.6
2017-Nov-13 23:00N 36°04' W 005°24'4 8.4
2017-Nov-13 22:30N 36°08' W 005°25'0 0.0
2017-Nov-12 21:54N 36°08' W 005°26'1 0.2
2017-Nov-12 16:48N 36°10' W 005°25'0 0.1
2017-Nov-12 16:30N 36°10' W 005°25'0 0.0
2017-Nov-12 15:39N 36°10' W 005°25'0 0.1
2017-Nov-12 15:24N 36°10' W 005°25'0 0.0
2017-Nov-12 14:51N 36°10' W 005°25'0 0.1
2017-Nov-12 14:30N 36°10' W 005°25'0 0.0
2017-Nov-12 12:51N 36°09' W 005°25'0 0.2
2017-Nov-12 12:06N 36°10' W 005°26'0 0.3
2017-Nov-12 12:00N 36°10' W 005°26'0 0.0
2017-Nov-11 20:15N 36°10' W 005°26'0 0.1
2017-Nov-11 19:57N 36°10' W 005°26'0 0.0
2017-Nov-11 18:18N 36°10' W 005°26'0 0.1
2017-Nov-11 17:54N 36°10' W 005°26'0 0.2
2017-Nov-11 17:30N 36°10' W 005°25'0 0.0
2017-Nov-11 17:00N 36°10' W 005°25'0 0.0
2017-Nov-11 14:11N 36°10' W 005°25'0 0.0
2017-Nov-11 13:56N 36°10' W 005°25'0 0.0
2017-Nov-11 07:20N 36°10' W 005°25'0 0.0
2017-Nov-11 06:59N 36°10' W 005°25'0 0.0
2017-Nov-11 06:29N 36°10' W 005°25'0 0.0
2017-Nov-11 04:59N 36°10' W 005°25'0 0.0
2017-Nov-11 04:23N 36°10' W 005°25'3 0.9
2017-Nov-11 00:30N 36°06' W 005°24'4 8.6
2017-Nov-11 00:00N 36°04' W 005°19'3 6.6
2017-Nov-10 23:29N 36°05' W 005°15'0 0.3
2017-Nov-10 23:00N 36°05' W 005°15'1 1.7
2017-Nov-10 22:30N 36°04' W 005°16'1 2.5
2017-Nov-10 22:00N 36°04' W 005°18'1 1.6
2017-Nov-10 21:30N 36°04' W 005°19'2 4.4
2017-Nov-10 21:00N 36°04' W 005°21'2 4.2
2017-Nov-10 20:30N 36°05' W 005°23'3 5.6
2017-Nov-10 20:00N 36°08' W 005°23'4 0.1
2017-Nov-09 18:29N 36°05' W 005°20'4 5.4
2017-Nov-09 17:50N 36°07' W 005°16'  

Dump ship's entire track history